KBPI/BPI METAR and TAF weather

Enter ICAO airport designator
Station Type Date Time Source
KBPI METAR 2018/12/12 16:53 UTC NOAA

KBPI 121653Z AUTO 00000KT 3SM -SN OVC033 M07/M11 A2984 RMK AO2 SLP168 P0000 T10721111


Station Type Date Time Source
KBPI Decoded METAR 2018/12/12 16:53 UTC NOAA

BIG PINEY-MARBLETON AIRPORT, WY, United States (KBPI) 42-35N 110-06W 2117M
Dec 12, 2018 - 11:53 AM EST / 2018.12.12 1653 UTC
Wind: Calm:0
Visibility: 3 mile(s):0
Sky conditions: overcast
Weather: light snow
Precipitation last hour: A trace
Temperature: 19.0 F (-7.2 C)
Dew Point: 12.0 F (-11.1 C)
Relative Humidity: 73%
Pressure (altimeter): 29.84 in. Hg (1010 hPa)
ob: KBPI 121653Z AUTO 00000KT 3SM -SN OVC033 M07/M11 A2984 RMK AO2 SLP168 P0000 T10721111
cycle: 17

Station Type Date Time Source
KBPI TAF 2018/12/12 16:36 UTC NOAA

TAF
AMD KBPI 121534Z 1216/1312 VRB05KT 5SM -SN OVC040
TEMPO 1216/1218 1 1/2SM BR OVC025
FM121800 30009KT 5SM -SN SCT008 OVC020
FM121830 32020G30KT P6SM VCSH SCT015 BKN030
FM130000 34012KT P6SM SCT035 BKN060
FM130400 35006KT P6SM SCT060


Example: see airport list